Savonburg, Kansas
Current Conditions -  °F | °C
As of 9:52 PM on Saturday 25 Oct 2014 (Local Time) from KCNU Reporting Station
Clear Clear  
Wind Chill: 66°   Ceiling: Unl
Heat Index: 66°   Visibility: 10mi
Dew Point: 63°   Wind: 7mph
Humidity: 90%   Direction: 140°SE
Pressure: 29.99"   Gusts: NA
Location:  37.75°N, 95.14°W
Report Text: KCNU 260252Z AUTO 14006KT 10SM CLR 19/17 A2999 RMK AO2 SLP148 T01890172 58004
Loading
Personal Weather Stations






























Interactive Weather Map
Tropical Storm Tracking
New forecast layout! Learn more

10-Day Weather Forecast

Advertisements
Track Severe Weather on mobile